Tuesday, October 23, 2018, 11:08 PM EDT
Back to Local

KAKR, Akron Fulton International

Location: Akron, OH, United States Lat: 41.033
Local Time: 11:08 PM EDT ( 3:08 GMT) Lon: -81.467
Time Zone: US/Eastern Elev: 1069 ft

Show me the last for .
Show Decoded

2018-10-23 22:54 METAR KAKR 240254Z AUTO 30003KT 10SM BKN041 BKN050 OVC070 07/03 A3021 RMK AO2
                 SLP234 T00720028 53008 =
2018-10-23 21:54 METAR KAKR 240154Z AUTO 00000KT 10SM BKN070 06/02 A3020 RMK AO2 SLP231 T00610022
                 =
2018-10-23 20:54 METAR KAKR 240054Z AUTO 00000KT 10SM BKN070 07/02 A3020 RMK AO2 SLP229 T00720022
                 =
2018-10-23 19:54 METAR KAKR 232354Z AUTO 29004KT 10SM SCT038 08/02 A3019 RMK AO2 SLP227 T00830022
                 10133 20083 52014 =
2018-10-23 18:54 METAR KAKR 232254Z AUTO 30008KT 10SM SCT060 09/02 A3018 RMK AO2 SLP222 T00940017
                 =
2018-10-23 17:54 METAR KAKR 232154Z AUTO 29009KT 10SM FEW070 11/02 A3016 RMK AO2 SLP216 T01110017
                 =
2018-10-23 16:54 METAR KAKR 232054Z AUTO 29013G18KT 10SM FEW045 SCT060 12/01 A3015 RMK AO2 SLP211
                 T01170011 53010 =
2018-10-23 15:54 METAR KAKR 231954Z AUTO 33008KT 10SM FEW045 BKN055 12/03 A3013 RMK AO2 SLP207
                 T01170028 =
2018-10-23 14:54 METAR KAKR 231854Z AUTO 31012G20KT 10SM BKN065 13/02 A3012 RMK AO2 SLP202
                 T01330022 =
2018-10-23 13:54 METAR KAKR 231754Z AUTO 30012KT 10SM SCT044 OVC060 12/01 A3012 RMK AO2 SLP200
                 T01220011 10144 20072 51015 =
2018-10-23 12:54 METAR KAKR 231654Z AUTO 33010G19KT 10SM FEW035 SCT048 BKN055 13/03 A3011 RMK AO2
                 SLP196 T01280033 =
2018-10-23 12:10 METAR KAKR 231610Z AUTO 31008KT 10SM SCT026 BKN031 12/05 A3010 RMK AO2 T01220050
                 =
2018-10-23 11:54 METAR KAKR 231554Z AUTO 29015G20KT 10SM BKN026 BKN031 12/05 A3010 RMK AO2 SLP194
                 T01220050 =
2018-10-23 11:47 METAR KAKR 231547Z AUTO 30014G19KT 10SM BKN024 12/05 A3009 RMK AO2 T01220050 =
2018-10-23 10:54 METAR KAKR 231454Z AUTO 29015G18KT 10SM CLR 12/04 A3007 RMK AO2 SLP184 T01170044
                 51018 =
2018-10-23 09:54 METAR KAKR 231354Z AUTO 28011KT 10SM CLR 10/04 A3005 RMK AO2 SLP178 T01000039 =
2018-10-23 08:54 METAR KAKR 231254Z AUTO 25008KT 10SM CLR 08/04 A3004 RMK AO2 SLP174 T00830039 =
2018-10-23 07:54 METAR KAKR 231154Z AUTO 23009KT 10SM CLR 07/03 A3002 RMK AO2 SLP166 T00720033
                 10078 20067 53003 =
2018-10-23 06:54 METAR KAKR 231054Z AUTO 21008KT 10SM CLR 07/03 A3000 RMK AO2 SLP161 T00670033 =
2018-10-23 05:54 METAR KAKR 230954Z AUTO 23005KT 10SM BKN085 07/03 A3001 RMK AO2 SLP163 T00720033
                 =
2018-10-23 04:54 METAR KAKR 230854Z AUTO 21007KT 10SM CLR 07/03 A3001 RMK AO2 SLP163 T00670033
                 58009 =
2018-10-23 03:54 METAR KAKR 230754Z AUTO 22007KT 10SM CLR 07/03 A3002 RMK AO2 SLP166 T00720033 =
2018-10-23 02:54 METAR KAKR 230654Z AUTO 22007KT 10SM CLR 07/03 A3003 RMK AO2 SLP170 T00720028 =
2018-10-23 01:54 METAR KAKR 230554Z AUTO 22007KT 10SM CLR 08/03 A3004 RMK AO2 SLP173 T00780033
                 10117 20072 55000 =
2018-10-23 00:54 METAR KAKR 230454Z AUTO 23005KT 10SM CLR 09/03 A3003 RMK AO2 SLP173 T00890033
                 401560011 =
2018-10-22 23:54 METAR KAKR 230354Z AUTO 22003KT 10SM CLR 08/03 A3003 RMK AO2 SLP173 T00780033 =

Support USWX by starting your Amazon purchase here.